Portada
METAR-TAF:

METAR-TAF

Aeropuertos :

Base Aérea de Getafe

Madrid-Getafe, España

latitud: 40-18N, longitud: 003-43W, altitud: 620 m

Observación

El informe se hizo hace 39 minutos, a las 09:30 UTC
Viento calma
Temperatura 27°C
Humedad 37%
Presión 1017 hPa
Visibilidad 10 km o más
sin nubes por debajo de 1500 m y sin presencia de cumulonimbus.

METAR: LEGT 140930Z 00000KT CAVOK 27/11 Q1017

Hora: 12:09 (10:09 UTC)

Pronóstico

El informe se hizo hace 5 horas y 9 minutos, a las 05:00 UTC
Pronóstico válido del 14 a las 06 UTC al 15 a las 06 UTC
Viento 4 kt con dirección variable
Visibilidad 10 km o más
sin nubes por debajo de 1500 m y sin presencia de cumulonimbus.
Temporalmente
del 14 a las 11 UTC al 14 a las 20 UTC
Viento 10 kt del oeste-suroeste

TAF: LEGT 140500Z 1406/1506 VRB04KT CAVOK TX32/1416Z TN17/1406Z TEMPO 1411/1420 24010KT

Observaciones y pronósticos meteorológicos de más de 4000 aeropuertos (mensajes METAR y TAF).

Los puntos amarillos y rojos representan las estaciones disponibles.

Ponga el ratón en el punto deseado para ver el nombre de la estación.

Haga clic para ver las observaciones y los pronósticos meteorológicos.

Para cambiar el mapa : haga clic en los botones verdes con una cruz de color negro para hacer un zoom, en el botón verde con un guión para alejar o en las flechas verdes para mapas adyacentes.


METAR-TAF: